sensor_id;sensor_type;location;lat;lon;timestamp;P1;durP1;ratioP1;P2;durP2;ratioP2
65170;SDS011;51757;52.208;5.162;2022-08-03T00:01:54;0.00;;;0.00;;
65170;SDS011;51757;52.208;5.162;2022-08-03T00:04:20;0.00;;;0.00;;
65170;SDS011;51757;52.208;5.162;2022-08-03T00:06:45;0.00;;;0.00;;
65170;SDS011;51757;52.208;5.162;2022-08-03T00:09:11;0.00;;;0.00;;
65170;SDS011;51757;52.208;5.162;2022-08-03T00:11:36;0.00;;;0.00;;
65170;SDS011;51757;52.208;5.162;2022-08-03T00:14:02;0.00;;;0.00;;
65170;SDS011;51757;52.208;5.162;2022-08-03T00:16:29;0.00;;;0.00;;
65170;SDS011;51757;52.208;5.162;2022-08-03T00:18:54;0.00;;;0.00;;
65170;SDS011;51757;52.208;5.162;2022-08-03T00:21:20;0.00;;;0.00;;
65170;SDS011;51757;52.208;5.162;2022-08-03T00:23:48;0.00;;;0.00;;
65170;SDS011;51757;52.208;5.162;2022-08-03T00:26:14;0.00;;;0.00;;
65170;SDS011;51757;52.208;5.162;2022-08-03T00:28:42;0.00;;;0.00;;
65170;SDS011;51757;52.208;5.162;2022-08-03T00:31:07;0.00;;;0.00;;
65170;SDS011;51757;52.208;5.162;2022-08-03T00:33:32;0.00;;;0.00;;
65170;SDS011;51757;52.208;5.162;2022-08-03T00:35:58;0.00;;;0.00;;
65170;SDS011;51757;52.208;5.162;2022-08-03T00:38:23;0.17;;;0.00;;
65170;SDS011;51757;52.208;5.162;2022-08-03T00:40:49;0.00;;;0.00;;
65170;SDS011;51757;52.208;5.162;2022-08-03T00:43:15;0.00;;;0.00;;
65170;SDS011;51757;52.208;5.162;2022-08-03T00:45:41;0.00;;;0.00;;
65170;SDS011;51757;52.208;5.162;2022-08-03T00:48:08;0.00;;;0.00;;
65170;SDS011;51757;52.208;5.162;2022-08-03T00:50:36;0.00;;;0.00;;
65170;SDS011;51757;52.208;5.162;2022-08-03T00:53:04;0.00;;;0.00;;
65170;SDS011;51757;52.208;5.162;2022-08-03T00:55:30;0.00;;;0.00;;
65170;SDS011;51757;52.208;5.162;2022-08-03T00:57:56;0.00;;;0.00;;
65170;SDS011;51757;52.208;5.162;2022-08-03T01:00:25;0.00;;;0.00;;
65170;SDS011;51757;52.208;5.162;2022-08-03T01:03:02;0.00;;;0.00;;
65170;SDS011;51757;52.208;5.162;2022-08-03T01:05:42;0.00;;;0.00;;
65170;SDS011;51757;52.208;5.162;2022-08-03T01:11:11;0.00;;;0.00;;
65170;SDS011;51757;52.208;5.162;2022-08-03T01:16:43;0.00;;;0.00;;
65170;SDS011;51757;52.208;5.162;2022-08-03T01:30:23;0.00;;;0.00;;
65170;SDS011;51757;52.208;5.162;2022-08-03T01:32:54;0.00;;;0.00;;
65170;SDS011;51757;52.208;5.162;2022-08-03T01:38:29;0.00;;;0.00;;
65170;SDS011;51757;52.208;5.162;2022-08-03T01:40:57;0.00;;;0.00;;
65170;SDS011;51757;52.208;5.162;2022-08-03T01:43:28;0.00;;;0.00;;
65170;SDS011;51757;52.208;5.162;2022-08-03T01:45:55;0.00;;;0.00;;
65170;SDS011;51757;52.208;5.162;2022-08-03T01:48:21;0.00;;;0.00;;
65170;SDS011;51757;52.208;5.162;2022-08-03T01:50:47;0.00;;;0.00;;
65170;SDS011;51757;52.208;5.162;2022-08-03T01:53:13;0.00;;;0.00;;
65170;SDS011;51757;52.208;5.162;2022-08-03T01:55:39;0.10;;;0.00;;
65170;SDS011;51757;52.208;5.162;2022-08-03T01:58:05;0.00;;;0.00;;
65170;SDS011;51757;52.208;5.162;2022-08-03T02:00:34;0.00;;;0.00;;
65170;SDS011;51757;52.208;5.162;2022-08-03T02:03:01;0.00;;;0.00;;
65170;SDS011;51757;52.208;5.162;2022-08-03T02:05:31;0.00;;;0.00;;
65170;SDS011;51757;52.208;5.162;2022-08-03T02:07:58;0.00;;;0.00;;
65170;SDS011;51757;52.208;5.162;2022-08-03T02:10:25;0.00;;;0.00;;
65170;SDS011;51757;52.208;5.162;2022-08-03T02:12:51;0.00;;;0.00;;
65170;SDS011;51757;52.208;5.162;2022-08-03T02:15:18;0.00;;;0.00;;
65170;SDS011;51757;52.208;5.162;2022-08-03T02:17:55;0.00;;;0.00;;
65170;SDS011;51757;52.208;5.162;2022-08-03T02:20:21;0.00;;;0.00;;
65170;SDS011;51757;52.208;5.162;2022-08-03T02:22:48;0.00;;;0.00;;
65170;SDS011;51757;52.208;5.162;2022-08-03T02:25:14;0.00;;;0.00;;
65170;SDS011;51757;52.208;5.162;2022-08-03T02:27:48;0.00;;;0.00;;
65170;SDS011;51757;52.208;5.162;2022-08-03T02:30:19;0.00;;;0.00;;
65170;SDS011;51757;52.208;5.162;2022-08-03T02:32:50;0.00;;;0.00;;
65170;SDS011;51757;52.208;5.162;2022-08-03T02:35:19;0.00;;;0.00;;
65170;SDS011;51757;52.208;5.162;2022-08-03T02:37:55;0.00;;;0.00;;
65170;SDS011;51757;52.208;5.162;2022-08-03T02:40:24;0.00;;;0.00;;
65170;SDS011;51757;52.208;5.162;2022-08-03T02:42:52;0.00;;;0.00;;
65170;SDS011;51757;52.208;5.162;2022-08-03T02:47:49;0.10;;;0.00;;
65170;SDS011;51757;52.208;5.162;2022-08-03T02:50:21;0.00;;;0.00;;
65170;SDS011;51757;52.208;5.162;2022-08-03T02:52:48;0.00;;;0.00;;
65170;SDS011;51757;52.208;5.162;2022-08-03T02:55:14;0.00;;;0.00;;
65170;SDS011;51757;52.208;5.162;2022-08-03T02:57:43;0.00;;;0.00;;
65170;SDS011;51757;52.208;5.162;2022-08-03T03:00:16;0.00;;;0.00;;
65170;SDS011;51757;52.208;5.162;2022-08-03T03:02:42;0.03;;;0.00;;
65170;SDS011;51757;52.208;5.162;2022-08-03T03:05:08;0.00;;;0.00;;
65170;SDS011;51757;52.208;5.162;2022-08-03T03:07:34;0.00;;;0.00;;
65170;SDS011;51757;52.208;5.162;2022-08-03T03:10:06;0.00;;;0.00;;
65170;SDS011;51757;52.208;5.162;2022-08-03T03:12:33;0.00;;;0.00;;
65170;SDS011;51757;52.208;5.162;2022-08-03T03:15:00;0.00;;;0.00;;
65170;SDS011;51757;52.208;5.162;2022-08-03T03:17:25;0.00;;;0.00;;
65170;SDS011;51757;52.208;5.162;2022-08-03T03:19:55;0.00;;;0.00;;
65170;SDS011;51757;52.208;5.162;2022-08-03T03:22:21;0.00;;;0.00;;
65170;SDS011;51757;52.208;5.162;2022-08-03T03:24:47;0.00;;;0.00;;
65170;SDS011;51757;52.208;5.162;2022-08-03T03:27:15;0.00;;;0.00;;
65170;SDS011;51757;52.208;5.162;2022-08-03T03:29:41;0.00;;;0.00;;
65170;SDS011;51757;52.208;5.162;2022-08-03T03:32:07;0.00;;;0.00;;
65170;SDS011;51757;52.208;5.162;2022-08-03T03:34:32;0.00;;;0.00;;
65170;SDS011;51757;52.208;5.162;2022-08-03T03:36:58;0.05;;;0.00;;
65170;SDS011;51757;52.208;5.162;2022-08-03T03:39:24;0.00;;;0.00;;
65170;SDS011;51757;52.208;5.162;2022-08-03T03:41:49;0.00;;;0.00;;
65170;SDS011;51757;52.208;5.162;2022-08-03T03:44:15;0.00;;;0.00;;
65170;SDS011;51757;52.208;5.162;2022-08-03T03:46:43;0.00;;;0.00;;
65170;SDS011;51757;52.208;5.162;2022-08-03T03:49:10;0.00;;;0.00;;
65170;SDS011;51757;52.208;5.162;2022-08-03T03:51:35;0.00;;;0.00;;
65170;SDS011;51757;52.208;5.162;2022-08-03T03:54:06;0.00;;;0.00;;
65170;SDS011;51757;52.208;5.162;2022-08-03T03:56:31;0.00;;;0.00;;
65170;SDS011;51757;52.208;5.162;2022-08-03T03:59:04;0.10;;;0.10;;
65170;SDS011;51757;52.208;5.162;2022-08-03T04:01:30;0.00;;;0.00;;
65170;SDS011;51757;52.208;5.162;2022-08-03T04:04:01;0.00;;;0.00;;
65170;SDS011;51757;52.208;5.162;2022-08-03T04:06:48;0.00;;;0.00;;
65170;SDS011;51757;52.208;5.162;2022-08-03T04:12:26;0.00;;;0.00;;
65170;SDS011;51757;52.208;5.162;2022-08-03T04:14:56;0.00;;;0.00;;
65170;SDS011;51757;52.208;5.162;2022-08-03T04:19:59;0.00;;;0.00;;
65170;SDS011;51757;52.208;5.162;2022-08-03T04:22:37;0.00;;;0.00;;
65170;SDS011;51757;52.208;5.162;2022-08-03T04:25:08;0.03;;;0.00;;
65170;SDS011;51757;52.208;5.162;2022-08-03T04:27:43;0.00;;;0.00;;
65170;SDS011;51757;52.208;5.162;2022-08-03T04:30:31;0.00;;;0.00;;
65170;SDS011;51757;52.208;5.162;2022-08-03T04:35:58;0.00;;;0.00;;
65170;SDS011;51757;52.208;5.162;2022-08-03T04:38:39;0.00;;;0.00;;
65170;SDS011;51757;52.208;5.162;2022-08-03T04:41:41;0.00;;;0.00;;
65170;SDS011;51757;52.208;5.162;2022-08-03T04:44:11;0.15;;;0.00;;
65170;SDS011;51757;52.208;5.162;2022-08-03T04:46:50;0.00;;;0.00;;
65170;SDS011;51757;52.208;5.162;2022-08-03T04:52:13;0.00;;;0.00;;
65170;SDS011;51757;52.208;5.162;2022-08-03T04:54:51;0.00;;;0.00;;
65170;SDS011;51757;52.208;5.162;2022-08-03T04:57:17;0.00;;;0.00;;
65170;SDS011;51757;52.208;5.162;2022-08-03T04:59:45;0.00;;;0.00;;
65170;SDS011;51757;52.208;5.162;2022-08-03T05:09:24;0.00;;;0.00;;
65170;SDS011;51757;52.208;5.162;2022-08-03T05:12:15;0.00;;;0.00;;
65170;SDS011;51757;52.208;5.162;2022-08-03T05:15:01;0.00;;;0.00;;
65170;SDS011;51757;52.208;5.162;2022-08-03T05:20:45;0.00;;;0.00;;
65170;SDS011;51757;52.208;5.162;2022-08-03T05:24:09;0.00;;;0.00;;
65170;SDS011;51757;52.208;5.162;2022-08-03T05:26:47;0.00;;;0.00;;
65170;SDS011;51757;52.208;5.162;2022-08-03T05:29:32;0.00;;;0.00;;
65170;SDS011;51757;52.208;5.162;2022-08-03T05:32:09;0.00;;;0.00;;
65170;SDS011;51757;52.208;5.162;2022-08-03T05:34:57;0.00;;;0.00;;
65170;SDS011;51757;52.208;5.162;2022-08-03T05:40:57;0.00;;;0.00;;
65170;SDS011;51757;52.208;5.162;2022-08-03T05:43:28;0.00;;;0.00;;
65170;SDS011;51757;52.208;5.162;2022-08-03T05:46:18;0.00;;;0.00;;
65170;SDS011;51757;52.208;5.162;2022-08-03T05:48:45;0.00;;;0.00;;
65170;SDS011;51757;52.208;5.162;2022-08-03T05:51:19;0.00;;;0.00;;
65170;SDS011;51757;52.208;5.162;2022-08-03T05:53:55;0.00;;;0.00;;
65170;SDS011;51757;52.208;5.162;2022-08-03T05:56:28;0.00;;;0.00;;
65170;SDS011;51757;52.208;5.162;2022-08-03T06:02:18;0.10;;;0.00;;
65170;SDS011;51757;52.208;5.162;2022-08-03T06:05:03;0.00;;;0.00;;
65170;SDS011;51757;52.208;5.162;2022-08-03T06:11:11;0.00;;;0.00;;
65170;SDS011;51757;52.208;5.162;2022-08-03T06:14:09;0.00;;;0.00;;
65170;SDS011;51757;52.208;5.162;2022-08-03T06:16:57;0.00;;;0.00;;
65170;SDS011;51757;52.208;5.162;2022-08-03T06:19:34;0.00;;;0.00;;
65170;SDS011;51757;52.208;5.162;2022-08-03T06:22:23;0.20;;;0.00;;
65170;SDS011;51757;52.208;5.162;2022-08-03T06:28:06;0.00;;;0.00;;
65170;SDS011;51757;52.208;5.162;2022-08-03T06:30:48;0.00;;;0.00;;
65170;SDS011;51757;52.208;5.162;2022-08-03T06:33:50;0.00;;;0.00;;
65170;SDS011;51757;52.208;5.162;2022-08-03T06:36:43;0.00;;;0.00;;
65170;SDS011;51757;52.208;5.162;2022-08-03T06:39:11;0.00;;;0.00;;
65170;SDS011;51757;52.208;5.162;2022-08-03T06:41:49;0.00;;;0.00;;
65170;SDS011;51757;52.208;5.162;2022-08-03T06:47:27;0.00;;;0.00;;
65170;SDS011;51757;52.208;5.162;2022-08-03T06:50:09;0.00;;;0.00;;
65170;SDS011;51757;52.208;5.162;2022-08-03T06:53:35;0.00;;;0.00;;
65170;SDS011;51757;52.208;5.162;2022-08-03T06:56:36;0.00;;;0.00;;
65170;SDS011;51757;52.208;5.162;2022-08-03T06:59:11;0.00;;;0.00;;
65170;SDS011;51757;52.208;5.162;2022-08-03T07:02:11;0.00;;;0.00;;
65170;SDS011;51757;52.208;5.162;2022-08-03T07:05:15;0.00;;;0.00;;
65170;SDS011;51757;52.208;5.162;2022-08-03T07:08:06;0.00;;;0.00;;
65170;SDS011;51757;52.208;5.162;2022-08-03T07:10:55;0.00;;;0.00;;
65170;SDS011;51757;52.208;5.162;2022-08-03T07:13:47;0.00;;;0.00;;
65170;SDS011;51757;52.208;5.162;2022-08-03T07:16:33;0.00;;;0.00;;
65170;SDS011;51757;52.208;5.162;2022-08-03T07:19:28;0.00;;;0.00;;
65170;SDS011;51757;52.208;5.162;2022-08-03T07:22:12;0.00;;;0.00;;
65170;SDS011;51757;52.208;5.162;2022-08-03T07:25:26;0.00;;;0.00;;
65170;SDS011;51757;52.208;5.162;2022-08-03T07:31:39;0.00;;;0.00;;
65170;SDS011;51757;52.208;5.162;2022-08-03T07:40:45;0.00;;;0.00;;
65170;SDS011;51757;52.208;5.162;2022-08-03T07:43:27;0.00;;;0.00;;
65170;SDS011;51757;52.208;5.162;2022-08-03T07:46:05;0.00;;;0.00;;
65170;SDS011;51757;52.208;5.162;2022-08-03T07:48:33;0.00;;;0.00;;
65170;SDS011;51757;52.208;5.162;2022-08-03T07:51:07;0.00;;;0.00;;
65170;SDS011;51757;52.208;5.162;2022-08-03T07:53:35;0.00;;;0.00;;
65170;SDS011;51757;52.208;5.162;2022-08-03T07:58:44;0.00;;;0.00;;
65170;SDS011;51757;52.208;5.162;2022-08-03T08:01:12;0.00;;;0.00;;
65170;SDS011;51757;52.208;5.162;2022-08-03T08:03:45;0.00;;;0.00;;
65170;SDS011;51757;52.208;5.162;2022-08-03T08:06:23;0.00;;;0.00;;
65170;SDS011;51757;52.208;5.162;2022-08-03T08:15:28;0.00;;;0.00;;
65170;SDS011;51757;52.208;5.162;2022-08-03T08:18:08;0.00;;;0.00;;
65170;SDS011;51757;52.208;5.162;2022-08-03T08:20:50;0.00;;;0.00;;
65170;SDS011;51757;52.208;5.162;2022-08-03T08:23:31;0.00;;;0.00;;
65170;SDS011;51757;52.208;5.162;2022-08-03T08:25:57;0.00;;;0.00;;
65170;SDS011;51757;52.208;5.162;2022-08-03T08:31:21;0.00;;;0.00;;
65170;SDS011;51757;52.208;5.162;2022-08-03T08:33:48;0.00;;;0.00;;
65170;SDS011;51757;52.208;5.162;2022-08-03T08:36:26;0.10;;;0.10;;
65170;SDS011;51757;52.208;5.162;2022-08-03T08:38:55;0.00;;;0.00;;
65170;SDS011;51757;52.208;5.162;2022-08-03T08:41:25;0.00;;;0.00;;
65170;SDS011;51757;52.208;5.162;2022-08-03T08:43:53;0.00;;;0.00;;
65170;SDS011;51757;52.208;5.162;2022-08-03T08:46:19;0.00;;;0.00;;
65170;SDS011;51757;52.208;5.162;2022-08-03T08:48:45;0.00;;;0.00;;
65170;SDS011;51757;52.208;5.162;2022-08-03T08:51:12;0.00;;;0.00;;
65170;SDS011;51757;52.208;5.162;2022-08-03T08:53:44;0.00;;;0.00;;
65170;SDS011;51757;52.208;5.162;2022-08-03T08:56:14;0.00;;;0.00;;
65170;SDS011;51757;52.208;5.162;2022-08-03T08:58:43;0.00;;;0.00;;
65170;SDS011;51757;52.208;5.162;2022-08-03T09:01:12;0.00;;;0.00;;
65170;SDS011;51757;52.208;5.162;2022-08-03T09:03:37;0.00;;;0.00;;
65170;SDS011;51757;52.208;5.162;2022-08-03T09:06:05;0.00;;;0.00;;
65170;SDS011;51757;52.208;5.162;2022-08-03T09:08:33;0.00;;;0.00;;
65170;SDS011;51757;52.208;5.162;2022-08-03T09:10:59;0.00;;;0.00;;
65170;SDS011;51757;52.208;5.162;2022-08-03T09:13:27;0.00;;;0.00;;
65170;SDS011;51757;52.208;5.162;2022-08-03T09:16:08;0.20;;;0.10;;
65170;SDS011;51757;52.208;5.162;2022-08-03T09:18:48;0.00;;;0.00;;
65170;SDS011;51757;52.208;5.162;2022-08-03T09:23:54;0.00;;;0.00;;
65170;SDS011;51757;52.208;5.162;2022-08-03T09:26:24;0.00;;;0.00;;
65170;SDS011;51757;52.208;5.162;2022-08-03T09:29:01;0.00;;;0.00;;
65170;SDS011;51757;52.208;5.162;2022-08-03T09:31:32;0.00;;;0.00;;
65170;SDS011;51757;52.208;5.162;2022-08-03T09:34:05;0.00;;;0.00;;
65170;SDS011;51757;52.208;5.162;2022-08-03T09:39:17;0.00;;;0.00;;
65170;SDS011;51757;52.208;5.162;2022-08-03T09:41:45;0.05;;;0.00;;
65170;SDS011;51757;52.208;5.162;2022-08-03T09:44:13;0.00;;;0.00;;
65170;SDS011;51757;52.208;5.162;2022-08-03T09:46:52;0.00;;;0.00;;
65170;SDS011;51757;52.208;5.162;2022-08-03T09:49:19;0.00;;;0.00;;
65170;SDS011;51757;52.208;5.162;2022-08-03T09:51:44;0.00;;;0.00;;
65170;SDS011;51757;52.208;5.162;2022-08-03T09:54:10;0.00;;;0.00;;
65170;SDS011;51757;52.208;5.162;2022-08-03T09:56:37;0.00;;;0.00;;
65170;SDS011;51757;52.208;5.162;2022-08-03T09:59:10;0.00;;;0.00;;
65170;SDS011;51757;52.208;5.162;2022-08-03T10:01:37;0.00;;;0.00;;
65170;SDS011;51757;52.208;5.162;2022-08-03T10:04:12;0.00;;;0.00;;
65170;SDS011;51757;52.208;5.162;2022-08-03T10:06:44;0.00;;;0.00;;
65170;SDS011;51757;52.208;5.162;2022-08-03T10:09:11;0.00;;;0.00;;
65170;SDS011;51757;52.208;5.162;2022-08-03T10:11:39;0.00;;;0.00;;
65170;SDS011;51757;52.208;5.162;2022-08-03T10:14:06;0.00;;;0.00;;
65170;SDS011;51757;52.208;5.162;2022-08-03T10:16:36;0.00;;;0.00;;
65170;SDS011;51757;52.208;5.162;2022-08-03T10:19:06;0.00;;;0.00;;
65170;SDS011;51757;52.208;5.162;2022-08-03T10:21:35;0.00;;;0.00;;
65170;SDS011;51757;52.208;5.162;2022-08-03T10:24:06;0.00;;;0.00;;
65170;SDS011;51757;52.208;5.162;2022-08-03T10:26:39;0.00;;;0.00;;
65170;SDS011;51757;52.208;5.162;2022-08-03T10:29:08;0.00;;;0.00;;
65170;SDS011;51757;52.208;5.162;2022-08-03T10:34:08;0.00;;;0.00;;
65170;SDS011;51757;52.208;5.162;2022-08-03T10:36:42;0.00;;;0.00;;
65170;SDS011;51757;52.208;5.162;2022-08-03T10:39:12;0.00;;;0.00;;
65170;SDS011;51757;52.208;5.162;2022-08-03T10:41:39;0.00;;;0.00;;
65170;SDS011;51757;52.208;5.162;2022-08-03T10:44:31;0.00;;;0.00;;
65170;SDS011;51757;52.208;5.162;2022-08-03T10:47:05;0.00;;;0.00;;
65170;SDS011;51757;52.208;5.162;2022-08-03T10:49:33;0.00;;;0.00;;
65170;SDS011;51757;52.208;5.162;2022-08-03T10:52:02;0.00;;;0.00;;
65170;SDS011;51757;52.208;5.162;2022-08-03T10:54:46;0.00;;;0.00;;
65170;SDS011;51757;52.208;5.162;2022-08-03T11:00:24;0.00;;;0.00;;
65170;SDS011;51757;52.208;5.162;2022-08-03T11:03:12;0.00;;;0.00;;
65170;SDS011;51757;52.208;5.162;2022-08-03T11:11:39;0.00;;;0.00;;
65170;SDS011;51757;52.208;5.162;2022-08-03T11:14:09;0.00;;;0.00;;
65170;SDS011;51757;52.208;5.162;2022-08-03T11:16:40;0.00;;;0.00;;
65170;SDS011;51757;52.208;5.162;2022-08-03T11:19:12;0.00;;;0.00;;
65170;SDS011;51757;52.208;5.162;2022-08-03T11:35:20;0.00;;;0.00;;
65170;SDS011;51757;52.208;5.162;2022-08-03T11:38:02;0.00;;;0.00;;
65170;SDS011;51757;52.208;5.162;2022-08-03T11:40:45;0.00;;;0.00;;
65170;SDS011;51757;52.208;5.162;2022-08-03T11:46:01;0.00;;;0.00;;
65170;SDS011;51757;52.208;5.162;2022-08-03T11:48:35;0.00;;;0.00;;
65170;SDS011;51757;52.208;5.162;2022-08-03T11:51:03;0.00;;;0.00;;
65170;SDS011;51757;52.208;5.162;2022-08-03T11:53:36;0.00;;;0.00;;
65170;SDS011;51757;52.208;5.162;2022-08-03T11:56:02;0.00;;;0.00;;
65170;SDS011;51757;52.208;5.162;2022-08-03T11:58:30;0.00;;;0.00;;
65170;SDS011;51757;52.208;5.162;2022-08-03T12:01:03;0.00;;;0.00;;
65170;SDS011;51757;52.208;5.162;2022-08-03T12:03:31;0.00;;;0.00;;
65170;SDS011;51757;52.208;5.162;2022-08-03T12:05:57;0.00;;;0.00;;
65170;SDS011;51757;52.208;5.162;2022-08-03T12:10:51;0.00;;;0.00;;
65170;SDS011;51757;52.208;5.162;2022-08-03T12:13:17;0.00;;;0.00;;
65170;SDS011;51757;52.208;5.162;2022-08-03T12:15:49;0.00;;;0.00;;
65170;SDS011;51757;52.208;5.162;2022-08-03T12:18:24;0.00;;;0.00;;
65170;SDS011;51757;52.208;5.162;2022-08-03T12:20:50;0.00;;;0.00;;
65170;SDS011;51757;52.208;5.162;2022-08-03T12:23:17;0.00;;;0.00;;
65170;SDS011;51757;52.208;5.162;2022-08-03T12:25:44;0.00;;;0.00;;
65170;SDS011;51757;52.208;5.162;2022-08-03T12:28:18;0.00;;;0.00;;
65170;SDS011;51757;52.208;5.162;2022-08-03T12:30:47;0.00;;;0.00;;
65170;SDS011;51757;52.208;5.162;2022-08-03T12:33:23;0.00;;;0.00;;
65170;SDS011;51757;52.208;5.162;2022-08-03T12:36:00;0.00;;;0.00;;
65170;SDS011;51757;52.208;5.162;2022-08-03T12:38:31;0.00;;;0.00;;
65170;SDS011;51757;52.208;5.162;2022-08-03T12:41:05;0.00;;;0.00;;
65170;SDS011;51757;52.208;5.162;2022-08-03T12:43:49;0.00;;;0.00;;
65170;SDS011;51757;52.208;5.162;2022-08-03T12:46:28;0.00;;;0.00;;
65170;SDS011;51757;52.208;5.162;2022-08-03T12:49:02;0.00;;;0.00;;
65170;SDS011;51757;52.208;5.162;2022-08-03T12:54:22;0.00;;;0.00;;
65170;SDS011;51757;52.208;5.162;2022-08-03T12:57:10;0.00;;;0.00;;
65170;SDS011;51757;52.208;5.162;2022-08-03T12:59:40;0.00;;;0.00;;
65170;SDS011;51757;52.208;5.162;2022-08-03T13:04:43;0.00;;;0.00;;
65170;SDS011;51757;52.208;5.162;2022-08-03T13:07:12;0.00;;;0.00;;
65170;SDS011;51757;52.208;5.162;2022-08-03T13:09:54;0.00;;;0.00;;
65170;SDS011;51757;52.208;5.162;2022-08-03T13:12:26;0.00;;;0.00;;
65170;SDS011;51757;52.208;5.162;2022-08-03T13:14:54;0.00;;;0.00;;
65170;SDS011;51757;52.208;5.162;2022-08-03T13:17:21;0.00;;;0.00;;
65170;SDS011;51757;52.208;5.162;2022-08-03T13:19:47;0.00;;;0.00;;
65170;SDS011;51757;52.208;5.162;2022-08-03T13:22:16;0.00;;;0.00;;
65170;SDS011;51757;52.208;5.162;2022-08-03T13:24:45;0.00;;;0.00;;
65170;SDS011;51757;52.208;5.162;2022-08-03T13:27:11;0.00;;;0.00;;
65170;SDS011;51757;52.208;5.162;2022-08-03T13:29:40;0.00;;;0.00;;
65170;SDS011;51757;52.208;5.162;2022-08-03T13:32:09;0.00;;;0.00;;
65170;SDS011;51757;52.208;5.162;2022-08-03T13:34:35;0.00;;;0.00;;
65170;SDS011;51757;52.208;5.162;2022-08-03T13:37:06;0.00;;;0.00;;
65170;SDS011;51757;52.208;5.162;2022-08-03T13:39:31;0.00;;;0.00;;
65170;SDS011;51757;52.208;5.162;2022-08-03T13:41:57;0.00;;;0.00;;
65170;SDS011;51757;52.208;5.162;2022-08-03T13:44:23;0.00;;;0.00;;
65170;SDS011;51757;52.208;5.162;2022-08-03T13:46:48;0.00;;;0.00;;
65170;SDS011;51757;52.208;5.162;2022-08-03T13:49:14;0.00;;;0.00;;
65170;SDS011;51757;52.208;5.162;2022-08-03T13:51:43;0.00;;;0.00;;
65170;SDS011;51757;52.208;5.162;2022-08-03T13:54:09;0.00;;;0.00;;
65170;SDS011;51757;52.208;5.162;2022-08-03T13:56:34;0.00;;;0.00;;
65170;SDS011;51757;52.208;5.162;2022-08-03T13:58:59;0.03;;;0.00;;
65170;SDS011;51757;52.208;5.162;2022-08-03T14:01:25;0.00;;;0.00;;
65170;SDS011;51757;52.208;5.162;2022-08-03T14:03:51;0.00;;;0.00;;
65170;SDS011;51757;52.208;5.162;2022-08-03T14:06:22;0.00;;;0.00;;
65170;SDS011;51757;52.208;5.162;2022-08-03T14:08:48;0.00;;;0.00;;
65170;SDS011;51757;52.208;5.162;2022-08-03T14:11:17;0.00;;;0.00;;
65170;SDS011;51757;52.208;5.162;2022-08-03T14:13:43;0.00;;;0.00;;
65170;SDS011;51757;52.208;5.162;2022-08-03T14:16:08;0.00;;;0.00;;
65170;SDS011;51757;52.208;5.162;2022-08-03T14:18:40;0.00;;;0.00;;
65170;SDS011;51757;52.208;5.162;2022-08-03T14:21:08;0.00;;;0.00;;
65170;SDS011;51757;52.208;5.162;2022-08-03T14:23:34;0.00;;;0.00;;
65170;SDS011;51757;52.208;5.162;2022-08-03T14:26:00;0.00;;;0.00;;
65170;SDS011;51757;52.208;5.162;2022-08-03T14:28:25;0.00;;;0.00;;
65170;SDS011;51757;52.208;5.162;2022-08-03T14:30:53;0.00;;;0.00;;
65170;SDS011;51757;52.208;5.162;2022-08-03T14:33:22;0.00;;;0.00;;
65170;SDS011;51757;52.208;5.162;2022-08-03T14:35:48;0.00;;;0.00;;
65170;SDS011;51757;52.208;5.162;2022-08-03T14:38:14;0.00;;;0.00;;
65170;SDS011;51757;52.208;5.162;2022-08-03T14:40:40;0.00;;;0.00;;
65170;SDS011;51757;52.208;5.162;2022-08-03T14:43:05;0.00;;;0.00;;
65170;SDS011;51757;52.208;5.162;2022-08-03T14:45:31;0.00;;;0.00;;
65170;SDS011;51757;52.208;5.162;2022-08-03T14:47:56;0.00;;;0.00;;
65170;SDS011;51757;52.208;5.162;2022-08-03T14:50:25;0.00;;;0.00;;
65170;SDS011;51757;52.208;5.162;2022-08-03T14:52:53;0.00;;;0.00;;
65170;SDS011;51757;52.208;5.162;2022-08-03T14:55:18;0.00;;;0.00;;
65170;SDS011;51757;52.208;5.162;2022-08-03T14:57:44;0.05;;;0.05;;
65170;SDS011;51757;52.208;5.162;2022-08-03T15:00:09;0.00;;;0.00;;
65170;SDS011;51757;52.208;5.162;2022-08-03T15:02:35;0.00;;;0.00;;
65170;SDS011;51757;52.208;5.162;2022-08-03T15:05:03;0.03;;;0.03;;
65170;SDS011;51757;52.208;5.162;2022-08-03T15:07:32;0.00;;;0.00;;
65170;SDS011;51757;52.208;5.162;2022-08-03T15:10:00;0.13;;;0.13;;
65170;SDS011;51757;52.208;5.162;2022-08-03T15:12:28;0.08;;;0.08;;
65170;SDS011;51757;52.208;5.162;2022-08-03T15:14:57;0.10;;;0.10;;
65170;SDS011;51757;52.208;5.162;2022-08-03T15:17:22;0.10;;;0.10;;
65170;SDS011;51757;52.208;5.162;2022-08-03T15:19:48;0.05;;;0.05;;
65170;SDS011;51757;52.208;5.162;2022-08-03T15:22:13;0.10;;;0.10;;
65170;SDS011;51757;52.208;5.162;2022-08-03T15:24:41;0.10;;;0.10;;
65170;SDS011;51757;52.208;5.162;2022-08-03T15:27:06;0.10;;;0.10;;
65170;SDS011;51757;52.208;5.162;2022-08-03T15:29:32;0.10;;;0.10;;
65170;SDS011;51757;52.208;5.162;2022-08-03T15:31:57;0.10;;;0.10;;
65170;SDS011;51757;52.208;5.162;2022-08-03T15:34:23;0.10;;;0.10;;
65170;SDS011;51757;52.208;5.162;2022-08-03T15:36:48;0.10;;;0.10;;
65170;SDS011;51757;52.208;5.162;2022-08-03T15:39:14;0.10;;;0.10;;
65170;SDS011;51757;52.208;5.162;2022-08-03T15:41:39;0.10;;;0.10;;
65170;SDS011;51757;52.208;5.162;2022-08-03T15:44:08;0.20;;;0.10;;
65170;SDS011;51757;52.208;5.162;2022-08-03T15:46:34;0.00;;;0.00;;
65170;SDS011;51757;52.208;5.162;2022-08-03T15:48:59;0.10;;;0.10;;
65170;SDS011;51757;52.208;5.162;2022-08-03T15:51:25;0.00;;;0.00;;
65170;SDS011;51757;52.208;5.162;2022-08-03T15:53:53;0.10;;;0.10;;
65170;SDS011;51757;52.208;5.162;2022-08-03T15:56:21;0.08;;;0.08;;
65170;SDS011;51757;52.208;5.162;2022-08-03T15:58:46;0.20;;;0.20;;
65170;SDS011;51757;52.208;5.162;2022-08-03T16:01:14;0.10;;;0.10;;
65170;SDS011;51757;52.208;5.162;2022-08-03T16:03:40;0.20;;;0.20;;
65170;SDS011;51757;52.208;5.162;2022-08-03T16:06:06;0.20;;;0.20;;
65170;SDS011;51757;52.208;5.162;2022-08-03T16:08:32;0.20;;;0.20;;
65170;SDS011;51757;52.208;5.162;2022-08-03T16:10:58;0.15;;;0.15;;
65170;SDS011;51757;52.208;5.162;2022-08-03T16:13:24;1.42;;;1.33;;
65170;SDS011;51757;52.208;5.162;2022-08-03T16:15:50;0.45;;;0.45;;
65170;SDS011;51757;52.208;5.162;2022-08-03T16:18:15;0.43;;;0.43;;
65170;SDS011;51757;52.208;5.162;2022-08-03T16:20:41;0.65;;;0.65;;
65170;SDS011;51757;52.208;5.162;2022-08-03T16:23:08;0.80;;;0.80;;
65170;SDS011;51757;52.208;5.162;2022-08-03T16:25:34;0.85;;;0.85;;
65170;SDS011;51757;52.208;5.162;2022-08-03T16:27:59;0.90;;;0.90;;
65170;SDS011;51757;52.208;5.162;2022-08-03T16:30:25;1.17;;;1.17;;
65170;SDS011;51757;52.208;5.162;2022-08-03T16:32:50;0.80;;;0.80;;
65170;SDS011;51757;52.208;5.162;2022-08-03T16:35:16;0.70;;;0.70;;
65170;SDS011;51757;52.208;5.162;2022-08-03T16:37:41;0.65;;;0.65;;
65170;SDS011;51757;52.208;5.162;2022-08-03T16:40:08;0.50;;;0.50;;
65170;SDS011;51757;52.208;5.162;2022-08-03T16:42:35;0.50;;;0.50;;
65170;SDS011;51757;52.208;5.162;2022-08-03T16:45:01;0.40;;;0.40;;
65170;SDS011;51757;52.208;5.162;2022-08-03T16:47:26;0.30;;;0.30;;
65170;SDS011;51757;52.208;5.162;2022-08-03T16:49:52;0.30;;;0.30;;
65170;SDS011;51757;52.208;5.162;2022-08-03T16:52:17;0.30;;;0.30;;
65170;SDS011;51757;52.208;5.162;2022-08-03T16:54:43;0.20;;;0.20;;
65170;SDS011;51757;52.208;5.162;2022-08-03T16:57:11;0.20;;;0.20;;
65170;SDS011;51757;52.208;5.162;2022-08-03T16:59:36;0.20;;;0.20;;
65170;SDS011;51757;52.208;5.162;2022-08-03T17:02:02;0.20;;;0.20;;
65170;SDS011;51757;52.208;5.162;2022-08-03T17:04:28;0.20;;;0.20;;
65170;SDS011;51757;52.208;5.162;2022-08-03T17:06:53;0.20;;;0.20;;
65170;SDS011;51757;52.208;5.162;2022-08-03T17:09:19;0.20;;;0.20;;
65170;SDS011;51757;52.208;5.162;2022-08-03T17:11:45;0.20;;;0.20;;
65170;SDS011;51757;52.208;5.162;2022-08-03T17:14:12;0.20;;;0.20;;
65170;SDS011;51757;52.208;5.162;2022-08-03T17:16:41;0.20;;;0.20;;